createdAt,value
2023-01-19T00:00:03.862Z,21.7
2023-01-19T00:01:05.474Z,21.8
2023-01-19T00:02:06.896Z,21.8
2023-01-19T00:03:08.287Z,21.8
2023-01-19T00:04:09.672Z,21.8
2023-01-19T00:05:11.089Z,21.8
2023-01-19T00:06:12.526Z,21.7
2023-01-19T00:07:14.102Z,21.8
2023-01-19T00:08:15.544Z,21.7
2023-01-19T00:09:16.968Z,21.7
2023-01-19T00:10:18.419Z,21.7
2023-01-19T00:11:19.845Z,21.7
2023-01-19T00:12:21.284Z,21.7
2023-01-19T00:13:22.698Z,21.8
2023-01-19T00:14:24.120Z,21.7
2023-01-19T00:15:25.524Z,21.8
2023-01-19T00:16:26.944Z,21.7
2023-01-19T00:17:28.506Z,21.7
2023-01-19T00:18:29.893Z,21.7
2023-01-19T00:19:31.307Z,21.7
2023-01-19T00:20:32.831Z,21.8
2023-01-19T00:21:34.358Z,21.7
2023-01-19T00:22:35.895Z,21.7
2023-01-19T00:23:37.289Z,21.8
2023-01-19T00:24:38.711Z,21.7
2023-01-19T00:25:40.128Z,21.8
2023-01-19T00:26:41.517Z,21.8
2023-01-19T00:27:42.901Z,21.8
2023-01-19T00:28:44.307Z,21.8
2023-01-19T00:29:45.779Z,21.8
2023-01-19T00:30:47.173Z,21.8
2023-01-19T00:31:48.637Z,21.8
2023-01-19T00:32:50.227Z,21.8
2023-01-19T00:33:51.677Z,21.8
2023-01-19T00:34:53.066Z,21.7
2023-01-19T00:35:54.636Z,21.7
2023-01-19T00:36:56.039Z,21.7
2023-01-19T00:37:57.469Z,21.7
2023-01-19T00:38:58.885Z,21.7
2023-01-19T00:40:00.351Z,21.7
2023-01-19T00:41:01.790Z,21.7
2023-01-19T00:42:03.181Z,21.7
2023-01-19T00:43:04.590Z,21.7
2023-01-19T00:44:06.021Z,21.7
2023-01-19T00:45:07.439Z,21.7
2023-01-19T00:46:08.922Z,21.7
2023-01-19T00:47:10.589Z,21.7
2023-01-19T00:48:12.025Z,21.7
2023-01-19T00:49:13.442Z,21.8
2023-01-19T00:50:14.851Z,21.8
2023-01-19T00:51:16.272Z,21.8
2023-01-19T00:52:17.666Z,21.8
2023-01-19T00:53:19.079Z,21.8
2023-01-19T00:54:20.544Z,21.8
2023-01-19T00:55:21.992Z,21.8
2023-01-19T00:56:23.438Z,21.8
2023-01-19T00:57:24.883Z,21.8
2023-01-19T00:58:26.294Z,21.9
2023-01-19T00:59:27.697Z,21.8
2023-01-19T01:00:29.121Z,21.9
2023-01-19T01:01:44.894Z,21.9
2023-01-19T01:02:48.065Z,21.9
2023-01-19T01:03:49.643Z,21.9
2023-01-19T01:04:51.065Z,21.9
2023-01-19T01:05:52.501Z,21.9
2023-01-19T01:06:53.863Z,22
2023-01-19T01:07:55.244Z,21.9
2023-01-19T01:08:56.638Z,21.9
2023-01-19T01:09:58.012Z,21.9
2023-01-19T01:10:59.451Z,21.9
2023-01-19T01:12:00.916Z,21.9
2023-01-19T01:13:16.998Z,21.9
2023-01-19T01:14:25.024Z,22
2023-01-19T01:15:26.575Z,21.9
2023-01-19T01:16:28.113Z,21.9
2023-01-19T01:17:29.666Z,21.9
2023-01-19T01:18:31.087Z,21.9
2023-01-19T01:19:32.470Z,21.9
2023-01-19T01:20:33.872Z,21.8
2023-01-19T01:21:35.285Z,21.9
2023-01-19T01:22:36.748Z,21.8
2023-01-19T01:23:38.156Z,21.8
2023-01-19T01:24:39.561Z,21.8
2023-01-19T01:25:41.005Z,21.9
2023-01-19T01:26:42.453Z,21.8
2023-01-19T01:27:43.882Z,21.8
2023-01-19T01:28:45.527Z,21.8
2023-01-19T01:29:46.913Z,21.8
2023-01-19T01:30:48.472Z,21.9
2023-01-19T01:31:49.937Z,21.8
2023-01-19T01:32:51.573Z,21.8
2023-01-19T01:33:52.982Z,21.8
2023-01-19T01:34:54.405Z,21.8
2023-01-19T01:35:55.803Z,21.8
2023-01-19T01:36:57.201Z,21.8
2023-01-19T01:37:58.612Z,21.8
2023-01-19T01:39:00.031Z,21.8
2023-01-19T01:40:01.439Z,21.8
2023-01-19T01:41:02.847Z,21.8
2023-01-19T01:42:04.265Z,21.8
2023-01-19T01:43:05.669Z,21.8
2023-01-19T01:44:08.853Z,21.8
2023-01-19T01:45:10.291Z,21.8
2023-01-19T01:46:12.079Z,21.8
2023-01-19T01:47:13.531Z,21.8
2023-01-19T01:48:15.102Z,21.8
2023-01-19T01:49:16.495Z,21.8
2023-01-19T01:50:17.882Z,21.8
2023-01-19T01:51:19.291Z,21.8
2023-01-19T01:52:20.686Z,21.8
2023-01-19T01:53:22.115Z,21.8
2023-01-19T01:54:23.606Z,21.8
2023-01-19T01:55:25.188Z,21.8
2023-01-19T01:56:26.605Z,21.8
2023-01-19T01:57:28.222Z,21.8
2023-01-19T01:58:29.715Z,21.8
2023-01-19T01:59:31.111Z,21.8
2023-01-19T02:00:32.503Z,21.9
2023-01-19T02:01:34.188Z,21.8
2023-01-19T02:02:35.907Z,21.8
2023-01-19T02:03:37.364Z,21.8
2023-01-19T02:04:38.893Z,21.8
2023-01-19T02:05:40.285Z,21.8
2023-01-19T02:06:41.694Z,21.9
2023-01-19T02:07:43.132Z,21.8
2023-01-19T02:08:44.544Z,21.8
2023-01-19T02:09:45.979Z,21.8
2023-01-19T02:10:47.523Z,21.9
2023-01-19T02:11:48.923Z,21.9
2023-01-19T02:12:50.383Z,21.9
2023-01-19T02:13:51.835Z,21.8
2023-01-19T02:14:53.224Z,21.8
2023-01-19T02:15:54.677Z,21.8
2023-01-19T02:16:56.178Z,21.8
2023-01-19T02:17:57.842Z,21.8
2023-01-19T02:18:59.258Z,21.8
2023-01-19T02:20:00.657Z,21.9
2023-01-19T02:21:02.071Z,21.9
2023-01-19T02:22:03.466Z,21.9
2023-01-19T02:23:04.853Z,21.9
2023-01-19T02:24:06.257Z,21.9
2023-01-19T02:25:07.654Z,21.9
2023-01-19T02:26:09.060Z,21.8
2023-01-19T02:27:10.451Z,21.8
2023-01-19T02:28:11.873Z,21.8
2023-01-19T02:29:13.295Z,21.9
2023-01-19T02:30:14.705Z,21.8
2023-01-19T02:31:16.135Z,21.9
2023-01-19T02:32:17.536Z,21.9
2023-01-19T02:33:18.932Z,21.9
2023-01-19T02:34:20.363Z,21.9
2023-01-19T02:35:21.798Z,21.9
2023-01-19T02:36:23.201Z,21.9
2023-01-19T02:37:24.627Z,21.9
2023-01-19T02:38:26.026Z,21.9
2023-01-19T02:39:27.407Z,21.9
2023-01-19T02:40:28.830Z,21.9
2023-01-19T02:41:30.223Z,21.9
2023-01-19T02:42:31.636Z,21.9
2023-01-19T02:43:33.058Z,21.9
2023-01-19T02:44:34.496Z,21.9
2023-01-19T02:45:35.887Z,22
2023-01-19T02:46:37.329Z,21.9
2023-01-19T02:47:38.993Z,21.9
2023-01-19T02:48:40.384Z,21.9
2023-01-19T02:49:41.777Z,21.9
2023-01-19T02:50:43.173Z,21.9
2023-01-19T02:51:44.571Z,21.9
2023-01-19T02:52:45.968Z,21.9
2023-01-19T02:53:47.364Z,21.9
2023-01-19T02:54:48.774Z,21.9
2023-01-19T02:55:50.193Z,21.9
2023-01-19T02:56:51.610Z,21.9
2023-01-19T02:57:52.997Z,22
2023-01-19T02:58:54.672Z,22
2023-01-19T02:59:56.172Z,22
2023-01-19T03:00:57.697Z,22
2023-01-19T03:01:59.381Z,22
2023-01-19T03:03:01.282Z,22
2023-01-19T03:04:03.790Z,22
2023-01-19T03:05:05.942Z,22.1
2023-01-19T03:06:07.470Z,22
2023-01-19T03:07:08.883Z,22.1
2023-01-19T03:08:10.301Z,22
2023-01-19T03:09:11.697Z,21.9
2023-01-19T03:10:13.115Z,22
2023-01-19T03:11:14.523Z,22.1
2023-01-19T03:12:15.961Z,22.1
2023-01-19T03:13:17.349Z,22
2023-01-19T03:14:18.825Z,22
2023-01-19T03:15:20.268Z,22
2023-01-19T03:16:22.472Z,22
2023-01-19T03:17:24.350Z,22
2023-01-19T03:18:25.743Z,22
2023-01-19T03:19:27.179Z,22
2023-01-19T03:20:28.662Z,22
2023-01-19T03:21:30.225Z,22
2023-01-19T03:22:31.647Z,21.9
2023-01-19T03:23:33.153Z,21.9
2023-01-19T03:24:36.322Z,21.9
2023-01-19T03:25:39.263Z,22
2023-01-19T03:26:40.660Z,22
2023-01-19T03:27:42.067Z,21.9
2023-01-19T03:28:43.495Z,21.9
2023-01-19T03:29:44.973Z,21.9
2023-01-19T03:30:46.456Z,21.9
2023-01-19T03:31:48.135Z,21.9
2023-01-19T03:32:49.568Z,21.9
2023-01-19T03:33:50.966Z,21.9
2023-01-19T03:34:52.383Z,22
2023-01-19T03:35:53.784Z,21.9
2023-01-19T03:36:55.206Z,21.9
2023-01-19T03:37:56.640Z,21.9
2023-01-19T03:38:58.043Z,21.9
2023-01-19T03:39:59.627Z,21.9
2023-01-19T03:41:01.023Z,21.9
2023-01-19T03:42:02.445Z,21.9
2023-01-19T03:43:04.109Z,22
2023-01-19T03:44:05.672Z,21.9
2023-01-19T03:45:07.100Z,21.9
2023-01-19T03:46:08.583Z,21.9
2023-01-19T03:47:10.067Z,21.9
2023-01-19T03:48:11.500Z,21.9
2023-01-19T03:49:12.894Z,21.9
2023-01-19T03:50:14.300Z,21.9
2023-01-19T03:51:15.706Z,21.9
2023-01-19T03:52:17.134Z,21.9
2023-01-19T03:53:18.519Z,21.9
2023-01-19T03:54:19.945Z,21.9
2023-01-19T03:55:21.372Z,21.9
2023-01-19T03:56:22.779Z,21.9
2023-01-19T03:57:24.191Z,21.9
2023-01-19T03:58:25.591Z,22.1
2023-01-19T03:59:27.042Z,22
2023-01-19T04:00:28.486Z,22.1
2023-01-19T04:01:30.092Z,22.1
2023-01-19T04:02:31.797Z,22
2023-01-19T04:03:33.624Z,22.1
2023-01-19T04:04:35.102Z,22.1
2023-01-19T04:05:36.503Z,22
2023-01-19T04:06:37.925Z,22
2023-01-19T04:07:39.318Z,22.1
2023-01-19T04:08:40.701Z,22
2023-01-19T04:09:42.182Z,22
2023-01-19T04:10:43.581Z,22
2023-01-19T04:11:44.982Z,22.1
2023-01-19T04:12:46.415Z,22
2023-01-19T04:13:47.856Z,22.1
2023-01-19T04:14:49.261Z,22.1
2023-01-19T04:15:50.742Z,22
2023-01-19T04:16:52.329Z,22.1
2023-01-19T04:17:53.751Z,22.1
2023-01-19T04:18:55.146Z,22.1
2023-01-19T04:19:56.517Z,22.2
2023-01-19T04:20:57.890Z,22
2023-01-19T04:21:59.322Z,22.1
2023-01-19T04:23:01.266Z,22
2023-01-19T04:24:03.847Z,22.1
2023-01-19T04:25:05.232Z,22.1
2023-01-19T04:26:06.615Z,22.1
2023-01-19T04:27:08.179Z,22.1
2023-01-19T04:28:09.585Z,22.1
2023-01-19T04:29:11.001Z,21.9
2023-01-19T04:30:12.398Z,22
2023-01-19T04:31:13.813Z,22
2023-01-19T04:32:15.360Z,22
2023-01-19T04:33:16.775Z,22
2023-01-19T04:34:18.194Z,22
2023-01-19T04:35:19.652Z,22
2023-01-19T04:36:21.102Z,21.9
2023-01-19T04:37:22.537Z,22
2023-01-19T04:38:24.029Z,21.9
2023-01-19T04:39:25.467Z,21.9
2023-01-19T04:40:26.887Z,22
2023-01-19T04:41:29.651Z,22.1
2023-01-19T04:42:32.554Z,21.9
2023-01-19T04:43:33.955Z,22
2023-01-19T04:44:35.407Z,22
2023-01-19T04:45:36.802Z,22.1
2023-01-19T04:46:38.279Z,22.1
2023-01-19T04:47:39.801Z,22
2023-01-19T04:48:42.039Z,22
2023-01-19T04:49:43.668Z,22.1
2023-01-19T04:50:45.106Z,22
2023-01-19T04:51:46.521Z,22.1
2023-01-19T04:52:47.927Z,22.2
2023-01-19T04:53:49.327Z,22.1
2023-01-19T04:54:50.721Z,22.1
2023-01-19T04:55:52.161Z,22.1
2023-01-19T04:56:53.555Z,21.7
2023-01-19T04:57:54.978Z,21.6
2023-01-19T04:58:56.353Z,21.2
2023-01-19T04:59:57.755Z,21.2
2023-01-19T05:00:59.225Z,21
2023-01-19T05:02:00.904Z,21.1
2023-01-19T05:03:03.088Z,20.9
2023-01-19T05:04:05.563Z,20.8
2023-01-19T05:05:06.981Z,20.9
2023-01-19T05:06:08.352Z,20.8
2023-01-19T05:07:09.767Z,20.7
2023-01-19T05:08:11.150Z,20.7
2023-01-19T05:09:12.553Z,20.7
2023-01-19T05:10:13.969Z,20.6
2023-01-19T05:11:15.367Z,20.7
2023-01-19T05:12:16.790Z,20.6
2023-01-19T05:13:18.194Z,20.5
2023-01-19T05:14:19.598Z,20.6
2023-01-19T05:15:20.980Z,20.5
2023-01-19T05:16:22.393Z,20.5
2023-01-19T05:17:24.084Z,20.6
2023-01-19T05:18:25.737Z,20.6
2023-01-19T05:19:27.152Z,20.6
2023-01-19T05:20:28.665Z,20.6
2023-01-19T05:21:30.078Z,20.5
2023-01-19T05:22:31.483Z,20.5
2023-01-19T05:23:32.884Z,20.4
2023-01-19T05:24:34.291Z,20.3
2023-01-19T05:25:35.684Z,20.4
2023-01-19T05:26:37.125Z,20.3
2023-01-19T05:27:38.517Z,20.5
2023-01-19T05:28:39.931Z,20.4
2023-01-19T05:29:41.349Z,20.3
2023-01-19T05:30:42.855Z,20.4
2023-01-19T05:31:44.387Z,20.3
2023-01-19T05:32:45.906Z,20.2
2023-01-19T05:33:47.317Z,20.2
2023-01-19T05:34:48.744Z,20.2
2023-01-19T05:35:50.173Z,20.2
2023-01-19T05:36:51.593Z,20.1
2023-01-19T05:37:53.034Z,20.1
2023-01-19T05:38:54.430Z,20.3
2023-01-19T05:39:55.823Z,20.3
2023-01-19T05:40:57.226Z,20.1
2023-01-19T05:41:58.651Z,20.1
2023-01-19T05:43:00.384Z,20.2
2023-01-19T05:44:02.866Z,20.1
2023-01-19T05:45:04.279Z,20
2023-01-19T05:46:05.719Z,20.2
2023-01-19T05:47:07.136Z,20.2
2023-01-19T05:48:09.487Z,20.2
2023-01-19T05:49:11.721Z,20.3
2023-01-19T05:50:13.128Z,20.1
2023-01-19T05:51:14.565Z,20.1
2023-01-19T05:52:15.969Z,20.1
2023-01-19T05:53:17.384Z,20.1
2023-01-19T05:54:18.810Z,20.1
2023-01-19T05:55:20.208Z,20.1
2023-01-19T05:56:21.600Z,20.1
2023-01-19T05:57:23.016Z,20.1
2023-01-19T05:58:24.398Z,20.1
2023-01-19T05:59:25.785Z,20.1
2023-01-19T06:00:27.196Z,20.2
2023-01-19T06:01:28.673Z,20.1
2023-01-19T06:02:30.482Z,20.1
2023-01-19T06:03:32.310Z,20.2
2023-01-19T06:04:33.925Z,20.2
2023-01-19T06:05:35.343Z,20.1
2023-01-19T06:06:36.772Z,20.1
2023-01-19T06:07:38.204Z,20.1
2023-01-19T06:08:39.606Z,20.1
2023-01-19T06:09:40.991Z,20.1
2023-01-19T06:10:42.431Z,20.2
2023-01-19T06:11:43.869Z,20.1
2023-01-19T06:12:45.285Z,20.1
2023-01-19T06:13:46.703Z,20.1
2023-01-19T06:14:48.123Z,20
2023-01-19T06:15:49.565Z,20.1
2023-01-19T06:16:51.003Z,20.1
2023-01-19T06:17:52.435Z,20.1
2023-01-19T06:18:53.871Z,20.1
2023-01-19T06:19:55.448Z,20.2
2023-01-19T06:20:56.867Z,20.1
2023-01-19T06:21:58.279Z,20.1
2023-01-19T06:23:00.106Z,20.1
2023-01-19T06:24:02.192Z,20.1
2023-01-19T06:25:03.576Z,20.1
2023-01-19T06:26:04.988Z,20.1
2023-01-19T06:27:06.373Z,20.1
2023-01-19T06:28:07.996Z,20.3
2023-01-19T06:29:09.378Z,20.2
2023-01-19T06:30:10.761Z,20.1
2023-01-19T06:31:12.185Z,20.3
2023-01-19T06:32:13.713Z,20.1
2023-01-19T06:33:15.110Z,20.1
2023-01-19T06:34:16.656Z,20.1
2023-01-19T06:35:18.283Z,20.2
2023-01-19T06:36:19.701Z,20.1
2023-01-19T06:37:21.124Z,20.2
2023-01-19T06:38:22.549Z,20.1
2023-01-19T06:39:23.957Z,20.2
2023-01-19T06:40:25.351Z,20.2
2023-01-19T06:41:26.767Z,20.2
2023-01-19T06:42:28.202Z,20.1
2023-01-19T06:43:29.610Z,20.1
2023-01-19T06:44:31.048Z,20.1
2023-01-19T06:45:32.472Z,20.2
2023-01-19T06:46:33.899Z,20.1
2023-01-19T06:47:35.295Z,20.2
2023-01-19T06:48:36.707Z,20.2
2023-01-19T06:49:38.151Z,20.3
2023-01-19T06:50:39.583Z,20.4
2023-01-19T06:51:41.005Z,20.3
2023-01-19T06:52:42.610Z,20.2
2023-01-19T06:53:44.173Z,20.4
2023-01-19T06:54:45.636Z,20.3
2023-01-19T06:55:47.062Z,20.3
2023-01-19T06:56:48.520Z,20.3
2023-01-19T06:57:49.913Z,20.3
2023-01-19T06:58:51.709Z,20.4
2023-01-19T06:59:53.120Z,20.4
2023-01-19T07:00:54.623Z,20.6
2023-01-19T07:01:56.589Z,20.5
2023-01-19T07:02:59.032Z,20.5
2023-01-19T07:04:01.571Z,20.6
2023-01-19T07:05:03.012Z,20.6
2023-01-19T07:06:04.447Z,20.6
2023-01-19T07:07:05.849Z,20.7
2023-01-19T07:08:07.255Z,20.7
2023-01-19T07:09:08.666Z,20.7
2023-01-19T07:10:10.099Z,20.7
2023-01-19T07:11:22.076Z,20.6
2023-01-19T07:12:34.314Z,20.7
2023-01-19T07:13:36.570Z,20.7
2023-01-19T07:14:38.414Z,20.7
2023-01-19T07:15:39.841Z,20.7
2023-01-19T07:16:41.454Z,20.7
2023-01-19T07:17:43.038Z,20.7
2023-01-19T07:18:44.453Z,20.8
2023-01-19T07:19:45.867Z,20.9
2023-01-19T07:20:47.309Z,20.9
2023-01-19T07:21:48.743Z,20.9
2023-01-19T07:22:50.148Z,20.9
2023-01-19T07:23:51.589Z,21
2023-01-19T07:24:52.992Z,20.9
2023-01-19T07:25:54.385Z,20.9
2023-01-19T07:26:55.796Z,21
2023-01-19T07:27:57.212Z,20.9
2023-01-19T07:28:58.659Z,21
2023-01-19T07:30:00.099Z,21.1
2023-01-19T07:31:01.564Z,21.1
2023-01-19T07:32:03.215Z,21
2023-01-19T07:33:04.606Z,21
2023-01-19T07:34:06.193Z,21.1
2023-01-19T07:35:07.596Z,21.2
2023-01-19T07:36:09.221Z,21
2023-01-19T07:37:10.662Z,21
2023-01-19T07:38:12.053Z,21.1
2023-01-19T07:39:13.451Z,20.9
2023-01-19T07:40:14.888Z,21
2023-01-19T07:41:16.295Z,21.1
2023-01-19T07:42:17.725Z,21.1
2023-01-19T07:43:19.111Z,21.1
2023-01-19T07:44:20.701Z,21.1
2023-01-19T07:45:22.106Z,21
2023-01-19T07:46:23.527Z,21.1
2023-01-19T07:47:25.119Z,21.1
2023-01-19T07:48:26.517Z,21.1
2023-01-19T07:49:27.957Z,21.2
2023-01-19T07:50:29.357Z,21.1
2023-01-19T07:51:30.787Z,21.2
2023-01-19T07:52:32.237Z,21.2
2023-01-19T07:53:33.649Z,21.3
2023-01-19T07:54:35.352Z,21.3
2023-01-19T07:55:36.765Z,21.3
2023-01-19T07:56:38.167Z,21.3
2023-01-19T07:57:39.560Z,21.3
2023-01-19T07:58:40.999Z,21.3
2023-01-19T07:59:42.444Z,21.3
2023-01-19T08:00:43.950Z,21.4
2023-01-19T08:01:45.674Z,21.2
2023-01-19T08:02:47.374Z,21.4
2023-01-19T08:03:48.790Z,21.5
2023-01-19T08:04:50.259Z,21.3
2023-01-19T08:05:51.807Z,21.3
2023-01-19T08:06:53.346Z,21.3
2023-01-19T08:07:54.871Z,21.3
2023-01-19T08:08:56.283Z,21
2023-01-19T08:09:57.706Z,21.4
2023-01-19T08:10:59.090Z,21.4
2023-01-19T08:12:00.517Z,21.4
2023-01-19T08:13:02.290Z,21.4
2023-01-19T08:14:06.319Z,21.3
2023-01-19T08:15:09.570Z,21.5
2023-01-19T08:16:11.038Z,21.3
2023-01-19T08:17:12.656Z,21.5
2023-01-19T08:18:14.059Z,21.5
2023-01-19T08:19:15.443Z,21.6
2023-01-19T08:20:16.870Z,21.4
2023-01-19T08:21:18.288Z,21.4
2023-01-19T08:22:19.734Z,21.4
2023-01-19T08:23:21.168Z,21.3
2023-01-19T08:24:22.641Z,21.4
2023-01-19T08:25:24.263Z,21.4
2023-01-19T08:26:25.704Z,21.6
2023-01-19T08:27:27.122Z,21.5
2023-01-19T08:28:28.562Z,21.5
2023-01-19T08:29:30.031Z,21.4
2023-01-19T08:30:31.456Z,21.6
2023-01-19T08:31:32.939Z,21.4
2023-01-19T08:32:34.687Z,21.4
2023-01-19T08:33:36.117Z,21.4
2023-01-19T08:34:37.546Z,21.5
2023-01-19T08:35:38.932Z,21.5
2023-01-19T08:36:40.363Z,21.4
2023-01-19T08:37:41.792Z,21.6
2023-01-19T08:38:43.249Z,21.5
2023-01-19T08:39:44.746Z,21.6
2023-01-19T08:40:46.137Z,21.6
2023-01-19T08:41:47.561Z,21.5
2023-01-19T08:42:48.963Z,21.4
2023-01-19T08:43:50.376Z,21.4
2023-01-19T08:44:57.984Z,21.4
2023-01-19T08:46:00.109Z,21.6
2023-01-19T08:47:01.796Z,21.5
2023-01-19T08:48:03.456Z,21.7
2023-01-19T08:49:04.866Z,21.7
2023-01-19T08:50:06.309Z,21.6
2023-01-19T08:51:07.771Z,21.6
2023-01-19T08:52:09.197Z,21.6
2023-01-19T08:53:10.654Z,21.6
2023-01-19T08:54:12.097Z,21.7
2023-01-19T08:55:13.499Z,21.6
2023-01-19T08:56:14.909Z,21.5
2023-01-19T08:57:16.319Z,21.6
2023-01-19T08:58:17.756Z,21.6
2023-01-19T08:59:19.195Z,21.7
2023-01-19T09:00:20.826Z,21.7
2023-01-19T09:01:22.516Z,21.7
2023-01-19T09:02:24.328Z,21.6
2023-01-19T09:03:25.919Z,21.6
2023-01-19T09:04:27.529Z,21.7
2023-01-19T09:05:28.959Z,21.6
2023-01-19T09:06:30.370Z,21.7
2023-01-19T09:07:32.576Z,21.8
2023-01-19T09:08:37.141Z,21.6
2023-01-19T09:09:38.718Z,21.8
2023-01-19T09:10:40.134Z,21.6
2023-01-19T09:11:41.542Z,21.7
2023-01-19T09:12:42.990Z,21.7
2023-01-19T09:13:44.802Z,21.6
2023-01-19T09:14:46.208Z,21.8
2023-01-19T09:15:47.668Z,21.7
2023-01-19T09:16:49.325Z,21.7
2023-01-19T09:17:50.894Z,21.6
2023-01-19T09:18:52.306Z,21.6
2023-01-19T09:19:53.702Z,21.7
2023-01-19T09:20:55.095Z,21.7
2023-01-19T09:21:56.507Z,21.7
2023-01-19T09:22:57.909Z,21.7
2023-01-19T09:23:59.341Z,21.6
2023-01-19T09:25:00.787Z,21.7
2023-01-19T09:26:02.214Z,21.8
2023-01-19T09:27:03.602Z,21.8
2023-01-19T09:28:05.004Z,21.7
2023-01-19T09:29:06.401Z,21.7
2023-01-19T09:30:07.841Z,21.7
2023-01-19T09:31:09.427Z,21.7
2023-01-19T09:32:11.244Z,21.8
2023-01-19T09:33:12.639Z,21.8
2023-01-19T09:34:14.091Z,21.6
2023-01-19T09:35:15.523Z,21.6
2023-01-19T09:36:16.949Z,21.6
2023-01-19T09:37:18.375Z,21.6
2023-01-19T09:38:19.834Z,21.6
2023-01-19T09:39:21.303Z,21.6
2023-01-19T09:40:22.751Z,21.6
2023-01-19T09:41:24.121Z,21.7
2023-01-19T09:42:25.550Z,21.6
2023-01-19T09:43:26.963Z,21.6
2023-01-19T09:44:28.376Z,21.7
2023-01-19T09:45:29.967Z,21.6
2023-01-19T09:46:31.412Z,21.6
2023-01-19T09:47:32.893Z,21.6
2023-01-19T09:48:34.304Z,21.7
2023-01-19T09:49:35.704Z,21.7
2023-01-19T09:50:37.122Z,21.7
2023-01-19T09:51:38.512Z,21.6
2023-01-19T09:52:39.955Z,21.7
2023-01-19T09:53:41.382Z,21.7
2023-01-19T09:54:42.814Z,21.7
2023-01-19T09:55:44.477Z,21.7
2023-01-19T09:56:45.913Z,21.7
2023-01-19T09:57:47.356Z,21.6
2023-01-19T09:58:48.752Z,21.6
2023-01-19T09:59:50.157Z,21.6
2023-01-19T10:00:51.570Z,21.6
2023-01-19T10:01:53.207Z,21.6
2023-01-19T10:02:54.918Z,21.6
2023-01-19T10:03:56.501Z,21.6
2023-01-19T10:04:57.897Z,21.6
2023-01-19T10:05:59.310Z,21.5
2023-01-19T10:07:00.699Z,21.5
2023-01-19T10:08:02.471Z,21.5
2023-01-19T10:09:04.731Z,21.6
2023-01-19T10:10:06.252Z,21.6
2023-01-19T10:11:07.738Z,21.6
2023-01-19T10:12:09.166Z,21.6
2023-01-19T10:13:10.586Z,21.6
2023-01-19T10:14:11.970Z,21.6
2023-01-19T10:15:13.383Z,21.6
2023-01-19T10:16:14.885Z,21.4
2023-01-19T10:17:16.462Z,21.3
2023-01-19T10:18:17.849Z,21.5
2023-01-19T10:19:19.245Z,21.3
2023-01-19T10:20:20.668Z,21.6
2023-01-19T10:21:22.066Z,21.5
2023-01-19T10:22:24.116Z,21.6
2023-01-19T10:23:25.553Z,21.5
2023-01-19T10:24:26.986Z,21.4
2023-01-19T10:25:28.481Z,21.3
2023-01-19T10:26:30.156Z,21.3
2023-01-19T10:27:31.651Z,21.3
2023-01-19T10:28:33.189Z,21.3
2023-01-19T10:29:34.639Z,21.4
2023-01-19T10:30:36.174Z,21.3
2023-01-19T10:31:38.030Z,21.3
2023-01-19T10:32:39.907Z,21.3
2023-01-19T10:33:41.375Z,21.2
2023-01-19T10:34:42.922Z,21.3
2023-01-19T10:35:44.377Z,21.2
2023-01-19T10:36:45.804Z,21.1
2023-01-19T10:37:47.190Z,21.2
2023-01-19T10:38:48.694Z,21.1
2023-01-19T10:39:50.223Z,21.1
2023-01-19T10:40:51.764Z,21.2
2023-01-19T10:41:53.331Z,21.1
2023-01-19T10:42:55.029Z,21.1
2023-01-19T10:43:56.504Z,20.9
2023-01-19T10:44:57.912Z,21.1
2023-01-19T10:45:59.561Z,21.2
2023-01-19T10:47:01.145Z,21
2023-01-19T10:48:02.562Z,21.1
2023-01-19T10:49:04.017Z,21.1
2023-01-19T10:50:05.441Z,21
2023-01-19T10:51:06.878Z,21.1
2023-01-19T10:52:08.324Z,21
2023-01-19T10:53:09.783Z,21
2023-01-19T10:54:11.219Z,21
2023-01-19T10:55:12.836Z,20.9
2023-01-19T10:56:14.453Z,21
2023-01-19T10:57:15.939Z,20.9
2023-01-19T10:58:18.973Z,20.9
2023-01-19T10:59:20.503Z,21.1
2023-01-19T11:00:21.919Z,20.9
2023-01-19T11:01:23.591Z,21
2023-01-19T11:02:25.613Z,21.1
2023-01-19T11:03:27.500Z,20.9
2023-01-19T11:04:29.078Z,20.8
2023-01-19T11:05:30.714Z,20.9
2023-01-19T11:06:32.134Z,21
2023-01-19T11:07:33.570Z,21
2023-01-19T11:08:34.994Z,20.9
2023-01-19T11:09:36.405Z,20.9
2023-01-19T11:10:37.816Z,20.9
2023-01-19T11:11:39.262Z,20.8
2023-01-19T11:12:40.711Z,21
2023-01-19T11:13:42.106Z,20.9
2023-01-19T11:14:43.759Z,20.9
2023-01-19T11:15:45.181Z,20.8
2023-01-19T11:16:46.610Z,20.5
2023-01-19T11:17:48.270Z,20.8
2023-01-19T11:18:49.833Z,20.7
2023-01-19T11:19:51.215Z,20.7
2023-01-19T11:20:52.660Z,20.6
2023-01-19T11:21:54.079Z,20.8
2023-01-19T11:22:55.491Z,20.9
2023-01-19T11:23:56.908Z,20.8
2023-01-19T11:24:58.329Z,20.8
2023-01-19T11:25:59.735Z,20.8
2023-01-19T11:27:01.238Z,20.8
2023-01-19T11:28:02.734Z,20.8
2023-01-19T11:29:04.171Z,20.8
2023-01-19T11:30:05.590Z,20.9
2023-01-19T11:31:07.070Z,20.8
2023-01-19T11:32:08.693Z,20.8
2023-01-19T11:33:10.243Z,20.7
2023-01-19T11:34:11.660Z,20.8
2023-01-19T11:35:13.049Z,20.8
2023-01-19T11:36:14.446Z,20.8
2023-01-19T11:37:15.883Z,20.8
2023-01-19T11:38:17.341Z,20.7
2023-01-19T11:39:18.741Z,20.6
2023-01-19T11:40:20.144Z,20.6
2023-01-19T11:41:21.571Z,20.8
2023-01-19T11:42:23.148Z,20.8
2023-01-19T11:43:24.594Z,20.8
2023-01-19T11:44:26.007Z,20.6
2023-01-19T11:45:27.517Z,20.7
2023-01-19T11:46:29.186Z,20.7
2023-01-19T11:47:30.594Z,20.8
2023-01-19T11:48:32.025Z,20.7
2023-01-19T11:49:33.527Z,20.8
2023-01-19T11:50:34.947Z,20.8
2023-01-19T11:51:36.358Z,20.8
2023-01-19T11:52:37.796Z,20.8
2023-01-19T11:53:39.223Z,20.7
2023-01-19T11:54:40.640Z,20.7
2023-01-19T11:55:42.130Z,20.7
2023-01-19T11:56:43.523Z,20.6
2023-01-19T11:57:45.011Z,20.7
2023-01-19T11:58:46.461Z,20.8
2023-01-19T11:59:49.537Z,20.8
2023-01-19T12:00:51.035Z,20.7
2023-01-19T12:01:52.559Z,20.8
2023-01-19T12:02:54.006Z,20.7
2023-01-19T12:03:55.410Z,20.6
2023-01-19T12:04:56.816Z,20.7
2023-01-19T12:05:58.248Z,20.6
2023-01-19T12:06:59.657Z,20.6
2023-01-19T12:08:01.817Z,20.7
2023-01-19T12:09:07.726Z,20.6
2023-01-19T12:10:09.135Z,20.7
2023-01-19T12:11:10.532Z,20.6
2023-01-19T12:12:11.949Z,20.7
2023-01-19T12:13:13.397Z,20.7
2023-01-19T12:14:14.922Z,20.8
2023-01-19T12:15:16.330Z,20.6
2023-01-19T12:16:17.816Z,20.6
2023-01-19T12:17:19.333Z,20.6
2023-01-19T12:18:20.733Z,20.6
2023-01-19T12:19:22.138Z,20.6
2023-01-19T12:20:23.532Z,20.6
2023-01-19T12:21:24.948Z,20.6
2023-01-19T12:22:26.373Z,20.6
2023-01-19T12:23:27.777Z,20.6
2023-01-19T12:24:29.263Z,20.5
2023-01-19T12:25:30.996Z,20.6
2023-01-19T12:26:32.440Z,20.7
2023-01-19T12:27:33.852Z,20.7
2023-01-19T12:28:35.275Z,20.6
2023-01-19T12:29:36.836Z,20.6
2023-01-19T12:30:38.297Z,20.7
2023-01-19T12:31:39.984Z,20.6
2023-01-19T12:32:41.566Z,20.6
2023-01-19T12:33:43.086Z,20.5
2023-01-19T12:34:44.482Z,20.6
2023-01-19T12:35:45.878Z,20.6
2023-01-19T12:36:47.273Z,20.6
2023-01-19T12:37:48.672Z,20.6
2023-01-19T12:38:50.231Z,20.6
2023-01-19T12:39:51.672Z,20.6
2023-01-19T12:40:53.093Z,20.6
2023-01-19T12:41:54.496Z,20.6
2023-01-19T12:42:55.897Z,20.6
2023-01-19T12:43:57.341Z,20.6
2023-01-19T12:44:58.799Z,20.6
2023-01-19T12:46:00.286Z,20.5
2023-01-19T12:47:01.952Z,20.5
2023-01-19T12:48:03.342Z,20.5
2023-01-19T12:49:04.749Z,20.5
2023-01-19T12:50:06.149Z,20.6
2023-01-19T12:51:07.552Z,20.6
2023-01-19T12:52:08.966Z,20.5
2023-01-19T12:53:10.369Z,20.6
2023-01-19T12:54:11.765Z,20.6
2023-01-19T12:55:13.195Z,20.6
2023-01-19T12:56:14.826Z,20.6
2023-01-19T12:57:16.219Z,20.6
2023-01-19T12:58:17.624Z,20.6
2023-01-19T12:59:19.026Z,20.6
2023-01-19T13:00:21.005Z,20.6
2023-01-19T13:01:22.583Z,20.5
2023-01-19T13:02:24.349Z,20.4
2023-01-19T13:03:25.825Z,20.7
2023-01-19T13:04:27.201Z,20.5
2023-01-19T13:05:28.584Z,20.4
2023-01-19T13:06:32.187Z,20.6
2023-01-19T13:07:33.604Z,20.6
2023-01-19T13:08:34.992Z,20.6
2023-01-19T13:09:36.375Z,20.4
2023-01-19T13:10:37.760Z,20.4
2023-01-19T13:11:39.162Z,20.6
2023-01-19T13:12:40.581Z,20.6
2023-01-19T13:13:41.980Z,20.6
2023-01-19T13:14:43.499Z,20.6
2023-01-19T13:15:45.082Z,20.6
2023-01-19T13:16:46.597Z,20.7
2023-01-19T13:17:49.960Z,20.6
2023-01-19T13:18:51.463Z,20.6
2023-01-19T13:19:52.887Z,20.6
2023-01-19T13:20:54.314Z,20.8
2023-01-19T13:21:55.744Z,20.6
2023-01-19T13:22:57.154Z,20.6
2023-01-19T13:23:58.563Z,20.8
2023-01-19T13:25:00.256Z,21
2023-01-19T13:26:02.143Z,20.7
2023-01-19T13:27:03.550Z,20.7
2023-01-19T13:28:04.964Z,20.6
2023-01-19T13:29:06.387Z,20.9
2023-01-19T13:30:07.849Z,20.7
2023-01-19T13:31:09.420Z,20.6
2023-01-19T13:32:11.205Z,20.7
2023-01-19T13:33:12.626Z,20.6
2023-01-19T13:34:14.038Z,20.6
2023-01-19T13:35:15.453Z,20.6
2023-01-19T13:36:16.863Z,20.6
2023-01-19T13:37:18.287Z,20.6
2023-01-19T13:38:19.717Z,20.6
2023-01-19T13:39:21.145Z,20.5
2023-01-19T13:40:22.534Z,20.5
2023-01-19T13:41:23.952Z,20.6
2023-01-19T13:42:25.372Z,20.6
2023-01-19T13:43:26.771Z,20.5
2023-01-19T13:44:28.326Z,20.6